EKVD

Kolding Vamdrup Airport

Kolding / Vamdrup, Denmark
METAR EKVD 130950Z 08001KT 9999 BKN009 01/01 Q1028
Observed Flight Rules
Dec-13 @ 09:50 UTC (an hour ago) Instrument Flight Rules
Wind Visibility Clouds
80° at 1 knots 10,000+ meters
  • Broken at 900' AGL
Temperatures Readings
Current 1°C / 34°F
Dewpoint 1°C / 34°F
Humidity 100%
Altimeter 30.35" Hg
Pressure 1028 hPa
Elevation 45
METAR EKVD 130950Z 08001KT 9999 BKN009 01/01 Q1028
Observed Flight Rules
Dec-13 @ 09:50 UTC
(an hour ago)
IFR
Wind Visibility
80° at 1 knots 10,000+ meters
Clouds
  • Broken at 900' AGL
Temperature Dewpoint
1°C / 34°F 1°C / 34°F
Humidity Altimeter Pressure
100% 30.35" Hg 1028 hPa